Weather observations for the past three days for
Victoria, Victoria Regional Airport
Metric (Imperial)
Date Time (cdt) Wind (kph) Vis. (km) Weather Sky Cond. Temperature (ºC) Relative Humidity Wind Chill (°C) Heat Index (°C) Pressure Precipitation (cm)
Air Dwpt 6 hour altimeter (cm) sea level (mb) 1 hr 3 hr 6 hr
Max. Min.
31 04:51 NE 6 11.27 Fair CLR 24.4 23.9 97% 24 76.12 1014.5
31 03:51 NE 6 14.48 Fair CLR 24.4 23.3 94% 24 76.12 1014.4
31 02:51 S 7 16.09 Fair CLR 25.6 24.4 93% 27 76.1 1014.5
31 01:51 SE 11 16.09 A Few Clouds FEW022 25.6 24.4 93% 27 76.15 1015.0
31 00:51 SE 11 16.09 A Few Clouds FEW017 25.6 24.4 33.3 25.6 93% 27 76.17 1015.1
30 23:51 SE 7 16.09 Fair CLR 26.1 24.4 90% 28 76.15 1014.9
30 22:51 SE 11 16.09 Fair CLR 26.7 24.4 87% 30 76.12 1014.7
30 21:51 SE 11 16.09 Fair CLR 27.2 24.4 85% 31 76.1 1014.3
30 20:51 SE 17 16.09 Fair CLR 28.3 24.4 79% 33 76.02 1013.4
30 19:51 SE 19 G 31 16.09 Fair CLR 30.6 23.3 65% 35 76 1012.9
30 18:51 SE 24 16.09 Fair CLR 33.3 22.8 38.3 31.7 54% 38 75.97 1012.7
30 17:51 SE 31 G 43 16.09 Fair CLR 35 21.7 46% 39 75.95 1012.5
30 16:51 S 24 G 37 16.09 A Few Clouds FEW110 36.7 22.2 43% 42 75.97 1012.4
30 15:51 SE 20 16.09 Partly Cloudy SCT120 37.2 21.7 41% 42 76.02 1013.4
30 14:51 SE 28 16.09 Fair CLR 32.8 22.8 56% 38 76.1 1014.4
30 13:51 SE 13 16.09 Partly Cloudy SCT055 SCT070 37.8 21.1 38% 42 76.15 1014.8
30 12:51 Calm 16.09 Fair CLR 37.2 21.7 37.2 22.8 41% 42 76.2 1015.6
30 11:51 S 15 16.09 A Few Clouds FEW044 35 21.7 46% 39 76.25 1016.3
30 10:51 S 11 16.09 A Few Clouds FEW029 33.9 23.3 54% 40 76.28 1016.7
30 09:51 S 7 16.09 A Few Clouds FEW020 31.1 23.9 66% 37 76.28 1016.7
30 08:51 SE 7 16.09 Fair CLR 27.8 25 85% 32 76.25 1016.3
30 07:51 NE 6 9.66 Fog/Mist CLR 24.4 23.9 97% 24 76.2 1015.8
30 06:51 Calm 9.66 Fog/Mist CLR 22.8 22.2 25.6 22.8 96% 76.17 1015.3
30 05:51 Calm 11.27 Fair CLR 22.8 22.8 100% 76.17 1015.4
30 04:51 E 6 12.87 Fair CLR 23.3 22.8 97% 76.17 1015.2
30 03:51 Calm 14.48 Fair CLR 23.3 22.8 97% 76.17 1015.2
30 02:51 Calm 16.09 Fair CLR 24.4 23.9 97% 24 76.17 1015.2
30 01:51 S 7 16.09 Fair CLR 25 23.9 94% 26 76.2 1015.4
30 00:51 S 9 16.09 Fair CLR 25.6 23.9 33.3 25.6 90% 27 76.23 1015.8
29 23:51 S 7 16.09 Fair CLR 26.1 23.9 88% 28 76.23 1015.9
29 22:51 S 11 16.09 Fair CLR 26.7 23.9 85% 29 76.2 1015.7
29 21:51 S 11 16.09 Fair CLR 27.8 23.9 79% 32 76.2 1015.5
29 20:51 S 15 16.09 Fair CLR 28.9 23.3 72% 33 76.12 1014.7
29 19:51 S 13 16.09 Fair CLR 30.6 22.2 61% 34 76.07 1014.2
29 18:51 S 26 G 35 16.09 Fair CLR 33.3 22.8 38.3 33.3 54% 38 76.07 1014.1
29 17:51 S 24 G 43 16.09 A Few Clouds FEW047 35 22.8 49% 40 76.07 1013.9
29 16:51 S 28 G 41 16.09 Fair CLR 36.1 22.8 46% 42 76.07 1013.8
29 15:51 S 30 G 44 16.09 Fair CLR 36.7 22.8 45% 42 76.12 1014.5
29 14:51 SE 33 G 52 16.09 A Few Clouds and Breezy FEW043 FEW050 35.6 21.7 44% 40 76.2 1015.6
29 13:51 Calm 16.09 Partly Cloudy SCT047 SCT060 37.2 22.2 42% 42 76.23 1016.1
29 12:51 SE 15 16.09 Mostly Cloudy BKN042 BKN075 36.1 23.3 36.1 23.3 48% 42 76.3 1016.9
29 11:51 S 13 16.09 Partly Cloudy SCT037 36.1 23.3 48% 42 76.35 1017.6
29 10:51 S 7 16.09 A Few Clouds FEW070 32.8 24.4 61% 39 76.35 1017.8
29 09:51 Calm 16.09 Partly Cloudy SCT018 32.2 25 66% 39 76.35 1017.7
29 08:51 E 6 16.09 Fair CLR 27.2 24.4 85% 31 76.35 1017.6
29 07:51 NE 6 16.09 Fair CLR 24.4 23.3 94% 24 76.33 1017.2
29 06:51 NE 7 14.48 Fair CLR 23.3 22.8 26.1 23.3 97% 76.28 1016.8
29 05:51 NE 6 16.09 Fair CLR 23.3 22.8 97% 76.28 1016.8
29 04:51 NE 7 16.09 Fair CLR 23.9 22.8 94% 23 76.28 1016.6
29 03:51 NE 7 14.48 Fair CLR 24.4 23.9 97% 24 76.23 1016.1
29 02:51 E 7 16.09 Fair CLR 25 23.9 94% 26 76.23 1016.0
29 01:51 NW 6 16.09 Fair CLR 25 23.9 94% 26 76.23 1016.0
29 00:51 Calm 16.09 Fair CLR 26.1 24.4 31.7 26.1 90% 28 76.2 1015.6
28 23:51 SE 7 16.09 Fair CLR 26.7 25 90% 30 76.23 1015.8
28 22:51 E 6 16.09 Fair CLR 27.2 24.4 85% 31 76.28 1016.6
28 21:51 S 19 16.09 Fair CLR 28.3 24.4 79% 33 76.15 1014.9
28 20:51 S 6 16.09 Fair CLR 27.8 24.4 82% 32 76.17 1015.4
28 19:51 E 17 16.09 Fair CLR 30 24.4 72% 36 76.15 1015.2
28 18:51 E 19 16.09 Fair CLR 31.7 25 39.4 27.8 68% 39 76.15 1014.9
28 17:51 E 11 16.09 Partly Cloudy FEW055 FEW080 SCT110 30 23.3 67% 34 76.1 1014.3
28 16:51 E 13 16.09 Fair CLR 34.4 18.9 40% 36 76.1 1014.2
28 15:51 S 31 G 41 16.09 Thunderstorm FEW060 29.4 21.7 63% 32 76.1 1014.3
28 14:51 Calm 16.09 Thunderstorm in Vicinity BKN065 BKN080 BKN100 37.2 22.2 42% 42 76.15 1015.0
28 13:51 Vrbl 9 16.09 Partly Cloudy SCT055 37.2 21.1 39% 41 76.2 1015.6
28 12:51 SW 6 16.09 Partly Cloudy SCT050 37.8 21.7 37.8 24.4 39% 43 76.28 1016.5
28 11:51 W 6 16.09 Fair CLR 35 22.2 47% 40 76.3 1016.9
28 10:51 Vrbl 11 16.09 Fair CLR 33.9 22.8 52% 39 76.3 1017.0
28 09:51 SW 17 16.09 Fair CLR 31.7 23.9 63% 37 76.3 1017.0
28 08:51 S 9 16.09 Fair CLR 28.9 25.6 82% 35 76.28 1016.6
28 07:51 Calm 16.09 Fair CLR 26.1 24.4 90% 28 76.25 1016.2
28 06:51 Calm 16.09 Fair CLR 24.4 23.9 27.2 24.4 97% 24 76.2 1015.8
28 05:51 E 6 16.09 Fair CLR 25.6 23.9 90% 27 76.17 1015.3
Date Time (cdt) Wind (kph) Vis. (km) Weather Sky Cond. Air Dwpt Max. Min. Relative Humidity Wind Chill (°C) Heat Index (°C) altimeter (cm) sea level (mb) 1 hr 3 hr 6 hr
6 hour
Temperature (ºC) Pressure Precipitation (cm)